createdAt,value
2018-03-14T00:00:18.219Z,11.4
2018-03-14T00:01:19.866Z,11.2
2018-03-14T00:02:21.522Z,12.0
2018-03-14T00:03:23.178Z,13.6
2018-03-14T00:04:24.819Z,13.8
2018-03-14T00:05:26.454Z,12.3
2018-03-14T00:06:28.108Z,11.8
2018-03-14T00:07:29.765Z,11.5
2018-03-14T00:08:31.406Z,11.1
2018-03-14T00:09:33.049Z,11.4
2018-03-14T00:10:34.738Z,11.7
2018-03-14T00:11:36.394Z,12.4
2018-03-14T00:12:38.050Z,11.7
2018-03-14T00:13:39.700Z,11.7
2018-03-14T00:14:41.346Z,12.0
2018-03-14T00:15:42.999Z,11.3
2018-03-14T00:16:44.653Z,12.0
2018-03-14T00:17:46.295Z,12.2
2018-03-14T00:18:47.940Z,11.7
2018-03-14T00:19:49.577Z,11.9
2018-03-14T00:20:51.221Z,12.5
2018-03-14T00:21:52.878Z,11.5
2018-03-14T00:22:54.519Z,11.2
2018-03-14T00:23:56.178Z,12.2
2018-03-14T00:24:57.825Z,11.8
2018-03-14T00:25:59.477Z,11.9
2018-03-14T00:27:01.119Z,12.4
2018-03-14T00:28:02.770Z,11.7
2018-03-14T00:29:04.420Z,13.1
2018-03-14T00:30:06.068Z,12.0
2018-03-14T00:31:07.722Z,11.9
2018-03-14T00:32:09.368Z,13.5
2018-03-14T00:33:11.027Z,12.6
2018-03-14T00:34:12.671Z,12.5
2018-03-14T00:35:14.320Z,12.0
2018-03-14T00:36:15.971Z,12.7
2018-03-14T00:37:17.622Z,12.2
2018-03-14T00:38:19.273Z,11.3
2018-03-14T00:39:20.914Z,11.3
2018-03-14T00:40:22.569Z,12.4
2018-03-14T00:41:24.212Z,11.8
2018-03-14T00:42:25.865Z,12.5
2018-03-14T00:43:27.524Z,12.7
2018-03-14T00:44:29.164Z,12.6
2018-03-14T00:45:30.819Z,13.5
2018-03-14T00:46:32.456Z,16.0
2018-03-14T00:47:34.102Z,14.8
2018-03-14T00:48:35.748Z,13.6
2018-03-14T00:49:37.404Z,13.1
2018-03-14T00:50:39.013Z,13.1
2018-03-14T00:51:40.786Z,12.9
2018-03-14T00:52:42.433Z,13.1
2018-03-14T00:53:44.075Z,13.3
2018-03-14T00:54:45.723Z,13.5
2018-03-14T00:55:47.381Z,13.1
2018-03-14T00:56:49.020Z,13.8
2018-03-14T00:57:50.666Z,13.8
2018-03-14T00:58:52.314Z,15.3
2018-03-14T00:59:53.961Z,14.6
2018-03-14T01:00:55.609Z,13.8
2018-03-14T01:01:57.258Z,14.4
2018-03-14T01:02:58.905Z,12.9
2018-03-14T01:04:00.558Z,13.3
2018-03-14T01:05:02.205Z,12.8
2018-03-14T01:06:03.854Z,12.6
2018-03-14T01:07:05.503Z,13.1
2018-03-14T01:08:07.151Z,11.9
2018-03-14T01:09:08.802Z,12.6
2018-03-14T01:10:10.451Z,12.2
2018-03-14T01:11:12.096Z,13.2
2018-03-14T01:12:13.746Z,11.9
2018-03-14T01:13:15.393Z,12.6
2018-03-14T01:14:17.040Z,12.1
2018-03-14T01:15:18.683Z,12.1
2018-03-14T01:16:20.336Z,13.0
2018-03-14T01:17:21.983Z,12.9
2018-03-14T01:18:23.629Z,12.0
2018-03-14T01:19:25.289Z,12.5
2018-03-14T01:20:26.937Z,11.2
2018-03-14T01:21:28.582Z,11.3
2018-03-14T01:22:30.231Z,11.0
2018-03-14T01:23:31.886Z,11.0
2018-03-14T01:24:33.536Z,10.9
2018-03-14T01:25:35.182Z,11.2
2018-03-14T01:26:36.874Z,10.4
2018-03-14T01:27:38.513Z,10.8
2018-03-14T01:28:40.178Z,9.9
2018-03-14T01:29:41.833Z,10.8
2018-03-14T01:30:43.488Z,10.0
2018-03-14T01:31:45.135Z,10.1
2018-03-14T01:32:46.780Z,10.5
2018-03-14T01:33:48.423Z,10.4
2018-03-14T01:34:50.076Z,10.7
2018-03-14T01:35:51.722Z,11.0
2018-03-14T01:36:53.366Z,10.7
2018-03-14T01:37:55.018Z,11.3
2018-03-14T01:38:56.664Z,11.0
2018-03-14T01:39:58.382Z,10.0
2018-03-14T01:41:00.026Z,9.6
2018-03-14T01:42:01.680Z,10.3
2018-03-14T01:43:03.324Z,10.5
2018-03-14T01:44:04.976Z,10.8
2018-03-14T01:45:06.626Z,10.3
2018-03-14T01:46:08.267Z,10.0
2018-03-14T01:47:09.919Z,10.2
2018-03-14T01:48:11.560Z,9.5
2018-03-14T01:49:13.214Z,9.3
2018-03-14T01:50:14.864Z,9.7
2018-03-14T01:51:16.534Z,9.4
2018-03-14T01:52:18.180Z,9.7
2018-03-14T01:53:19.828Z,9.2
2018-03-14T01:54:21.472Z,8.7
2018-03-14T01:55:23.119Z,8.5
2018-03-14T01:56:24.770Z,8.1
2018-03-14T01:57:26.420Z,8.8
2018-03-14T01:58:28.073Z,8.5
2018-03-14T01:59:29.717Z,8.2
2018-03-14T02:00:31.365Z,7.9
2018-03-14T02:01:33.966Z,8.0
2018-03-14T02:02:35.613Z,8.7
2018-03-14T02:03:37.263Z,8.5
2018-03-14T02:04:38.906Z,7.7
2018-03-14T02:05:40.555Z,8.5
2018-03-14T02:06:43.155Z,7.8
2018-03-14T02:07:43.804Z,7.7
2018-03-14T02:08:45.451Z,8.1
2018-03-14T02:09:47.097Z,8.8
2018-03-14T02:10:49.345Z,8.0
2018-03-14T02:11:50.995Z,7.8
2018-03-14T02:12:52.635Z,8.6
2018-03-14T02:13:54.282Z,8.4
2018-03-14T02:14:55.934Z,7.9
2018-03-14T02:15:57.578Z,7.8
2018-03-14T02:16:59.225Z,7.8
2018-03-14T02:18:00.875Z,7.6
2018-03-14T02:19:02.527Z,7.8
2018-03-14T02:20:04.176Z,8.1
2018-03-14T02:21:05.815Z,8.3
2018-03-14T02:22:07.458Z,8.7
2018-03-14T02:23:09.105Z,8.6
2018-03-14T02:24:10.764Z,8.7
2018-03-14T02:25:12.407Z,8.4
2018-03-14T02:26:14.061Z,8.8
2018-03-14T02:27:15.704Z,9.6
2018-03-14T02:28:17.353Z,8.7
2018-03-14T02:29:18.998Z,9.6
2018-03-14T02:30:20.647Z,9.5
2018-03-14T02:31:22.292Z,9.2
2018-03-14T02:32:23.940Z,9.3
2018-03-14T02:33:25.608Z,9.8
2018-03-14T02:34:27.258Z,9.7
2018-03-14T02:35:28.902Z,9.9
2018-03-14T02:36:30.554Z,10.1
2018-03-14T02:37:32.165Z,10.4
2018-03-14T02:38:33.807Z,10.1
2018-03-14T02:39:35.449Z,9.3
2018-03-14T02:40:37.096Z,10.4
2018-03-14T02:41:38.749Z,10.3
2018-03-14T02:42:40.384Z,10.3
2018-03-14T02:43:42.034Z,10.5
2018-03-14T02:44:43.685Z,11.5
2018-03-14T02:45:45.347Z,11.1
2018-03-14T02:46:46.999Z,10.6
2018-03-14T02:47:48.648Z,10.8
2018-03-14T02:48:50.300Z,11.1
2018-03-14T02:49:51.944Z,10.6
2018-03-14T02:50:53.596Z,11.0
2018-03-14T02:51:55.237Z,11.2
2018-03-14T02:52:56.896Z,10.9
2018-03-14T02:53:58.536Z,11.0
2018-03-14T02:55:00.192Z,11.3
2018-03-14T03:01:34.966Z,9.7
2018-03-14T03:02:36.612Z,10.7
2018-03-14T03:03:39.027Z,11.5
2018-03-14T03:04:40.676Z,12.3
2018-03-14T03:05:42.316Z,11.9
2018-03-14T03:06:43.964Z,11.1
2018-03-14T03:07:45.630Z,10.9
2018-03-14T03:08:48.184Z,11.5
2018-03-14T03:09:48.885Z,12.1
2018-03-14T03:10:50.535Z,11.3
2018-03-14T03:11:52.196Z,11.8
2018-03-14T03:12:53.844Z,11.5
2018-03-14T03:13:55.496Z,11.8
2018-03-14T03:14:57.143Z,10.9
2018-03-14T03:15:58.790Z,11.2
2018-03-14T03:17:00.443Z,11.2
2018-03-14T03:18:02.097Z,10.9
2018-03-14T03:19:03.742Z,11.0
2018-03-14T03:20:05.393Z,11.4
2018-03-14T03:21:07.054Z,11.6
2018-03-14T03:22:08.715Z,10.7
2018-03-14T03:23:10.369Z,10.5
2018-03-14T03:24:12.019Z,10.6
2018-03-14T03:25:13.661Z,10.4
2018-03-14T03:26:15.312Z,11.0
2018-03-14T03:27:16.957Z,10.9
2018-03-14T03:28:18.614Z,11.1
2018-03-14T03:29:20.262Z,9.8
2018-03-14T03:30:21.925Z,10.6
2018-03-14T03:31:23.579Z,11.5
2018-03-14T03:32:25.221Z,11.1
2018-03-14T03:33:26.878Z,10.5
2018-03-14T03:34:28.521Z,11.7
2018-03-14T03:35:30.224Z,12.2
2018-03-14T03:36:31.872Z,11.5
2018-03-14T03:37:33.521Z,11.2
2018-03-14T03:38:35.190Z,11.9
2018-03-14T03:39:36.833Z,11.8
2018-03-14T03:40:38.485Z,12.3
2018-03-14T03:41:40.141Z,13.1
2018-03-14T03:42:41.788Z,11.5
2018-03-14T03:43:43.441Z,12.3
2018-03-14T03:44:45.093Z,12.1
2018-03-14T03:45:46.747Z,12.3
2018-03-14T03:46:48.405Z,12.6
2018-03-14T03:47:50.053Z,12.7
2018-03-14T03:48:51.711Z,12.5
2018-03-14T03:49:53.360Z,12.6
2018-03-14T03:50:55.007Z,13.0
2018-03-14T03:51:56.665Z,13.0
2018-03-14T03:52:58.309Z,13.2
2018-03-14T03:53:59.960Z,13.5
2018-03-14T03:55:01.604Z,13.5
2018-03-14T03:56:03.252Z,13.5
2018-03-14T03:57:04.919Z,15.0
2018-03-14T03:58:06.564Z,13.5
2018-03-14T03:59:08.224Z,13.3
2018-03-14T04:00:09.881Z,13.7
2018-03-14T04:01:11.537Z,13.3
2018-03-14T04:02:13.205Z,14.0
2018-03-14T04:03:14.860Z,13.9
2018-03-14T04:04:16.521Z,13.0
2018-03-14T04:05:18.167Z,13.4
2018-03-14T04:06:19.871Z,12.8
2018-03-14T04:07:21.508Z,14.2
2018-03-14T04:08:23.168Z,14.1
2018-03-14T04:09:24.885Z,13.6
2018-03-14T04:10:26.552Z,14.1
2018-03-14T04:11:28.210Z,13.7
2018-03-14T04:12:29.869Z,15.4
2018-03-14T04:13:31.525Z,14.5
2018-03-14T04:14:33.193Z,15.9
2018-03-14T04:15:34.828Z,16.1
2018-03-14T04:16:36.466Z,16.6
2018-03-14T04:17:38.136Z,15.6
2018-03-14T04:18:39.789Z,15.4
2018-03-14T04:19:41.442Z,17.3
2018-03-14T04:20:43.104Z,16.2
2018-03-14T04:21:44.811Z,15.7
2018-03-14T04:22:46.463Z,16.9
2018-03-14T04:23:48.978Z,16.4
2018-03-14T04:24:50.631Z,17.0
2018-03-14T04:25:52.290Z,17.8
2018-03-14T04:26:53.948Z,17.3
2018-03-14T04:27:55.608Z,17.2
2018-03-14T04:28:57.251Z,17.1
2018-03-14T04:29:58.909Z,17.4
2018-03-14T04:31:00.566Z,17.7
2018-03-14T04:32:02.218Z,17.2
2018-03-14T04:33:03.889Z,18.5
2018-03-14T04:34:05.537Z,17.7
2018-03-14T04:35:07.187Z,17.4
2018-03-14T04:36:08.844Z,18.1
2018-03-14T04:37:10.488Z,17.2
2018-03-14T04:38:12.163Z,15.8
2018-03-14T04:39:13.815Z,18.6
2018-03-14T04:40:15.542Z,18.3
2018-03-14T04:41:17.203Z,18.5
2018-03-14T04:42:18.851Z,18.8
2018-03-14T04:43:20.508Z,18.3
2018-03-14T04:44:22.166Z,18.3
2018-03-14T04:45:23.820Z,18.7
2018-03-14T04:46:25.477Z,18.1
2018-03-14T04:47:27.131Z,19.8
2018-03-14T04:48:28.788Z,17.9
2018-03-14T04:49:30.441Z,18.4
2018-03-14T04:50:32.090Z,17.3
2018-03-14T04:51:34.509Z,17.4
2018-03-14T04:52:36.164Z,18.2
2018-03-14T04:53:37.836Z,19.1
2018-03-14T04:54:39.494Z,18.3
2018-03-14T04:55:41.155Z,18.3
2018-03-14T04:56:42.816Z,19.2
2018-03-14T04:57:44.465Z,20.0
2018-03-14T04:58:46.125Z,18.4
2018-03-14T04:59:47.805Z,19.4
2018-03-14T05:00:49.451Z,19.3
2018-03-14T05:01:51.113Z,20.0
2018-03-14T05:02:52.763Z,19.7
2018-03-14T05:03:54.421Z,20.5
2018-03-14T05:04:56.077Z,20.3
2018-03-14T05:05:57.729Z,20.0
2018-03-14T05:06:59.386Z,20.9
2018-03-14T05:08:01.040Z,19.8
2018-03-14T05:09:02.704Z,19.2
2018-03-14T05:10:04.370Z,19.7
2018-03-14T05:11:06.029Z,20.3
2018-03-14T05:12:07.690Z,20.0
2018-03-14T05:13:09.349Z,19.9
2018-03-14T05:14:11.002Z,19.2
2018-03-14T05:15:13.470Z,20.6
2018-03-14T05:16:15.122Z,21.1
2018-03-14T05:17:16.778Z,19.5
2018-03-14T05:18:18.435Z,20.0
2018-03-14T05:19:20.090Z,20.4
2018-03-14T05:20:21.736Z,20.6
2018-03-14T05:21:23.385Z,20.8
2018-03-14T05:22:25.075Z,21.1
2018-03-14T05:23:26.728Z,21.0
2018-03-14T05:24:28.373Z,20.4
2018-03-14T05:25:30.027Z,20.7
2018-03-14T05:26:31.713Z,20.7
2018-03-14T05:27:33.364Z,21.5
2018-03-14T05:28:35.017Z,22.0
2018-03-14T05:29:36.675Z,22.0
2018-03-14T05:30:38.323Z,22.9
2018-03-14T05:31:39.975Z,22.2
2018-03-14T05:32:41.638Z,22.2
2018-03-14T05:33:43.284Z,21.7
2018-03-14T05:34:44.945Z,22.2
2018-03-14T05:35:46.604Z,23.6
2018-03-14T05:36:48.259Z,22.4
2018-03-14T05:37:49.967Z,23.2
2018-03-14T05:38:51.578Z,24.1
2018-03-14T05:39:53.249Z,24.3
2018-03-14T05:40:54.910Z,22.0
2018-03-14T05:41:56.560Z,23.6
2018-03-14T05:42:58.214Z,25.2
2018-03-14T05:43:59.863Z,24.0
2018-03-14T05:45:01.565Z,25.3
2018-03-14T05:46:03.219Z,24.6
2018-03-14T05:47:04.871Z,24.9
2018-03-14T05:48:06.517Z,24.7
2018-03-14T05:49:08.170Z,25.3
2018-03-14T05:50:09.828Z,22.9
2018-03-14T05:51:11.509Z,25.6
2018-03-14T05:52:13.157Z,25.2
2018-03-14T05:53:14.813Z,24.8
2018-03-14T05:54:16.481Z,23.9
2018-03-14T05:55:18.124Z,25.5
2018-03-14T05:56:19.786Z,25.1
2018-03-14T05:57:21.422Z,25.2
2018-03-14T05:58:23.075Z,24.5
2018-03-14T05:59:24.727Z,26.0
2018-03-14T06:00:26.409Z,27.8
2018-03-14T06:01:28.056Z,29.4
2018-03-14T06:02:29.715Z,28.8
2018-03-14T06:03:31.372Z,27.9
2018-03-14T06:04:33.018Z,27.9
2018-03-14T06:05:34.676Z,27.7
2018-03-14T06:06:36.396Z,28.3
2018-03-14T06:07:38.002Z,27.6
2018-03-14T06:08:39.665Z,28.8
2018-03-14T06:09:41.318Z,27.6
2018-03-14T06:10:42.992Z,28.5
2018-03-14T06:11:44.645Z,26.9
2018-03-14T06:12:46.297Z,26.2
2018-03-14T06:13:48.738Z,26.9
2018-03-14T06:14:50.387Z,29.5
2018-03-14T06:15:52.054Z,29.3
2018-03-14T06:16:53.787Z,30.3
2018-03-14T06:17:55.434Z,29.2
2018-03-14T06:18:57.095Z,28.5
2018-03-14T06:19:58.752Z,29.0
2018-03-14T06:21:00.398Z,28.2
2018-03-14T06:22:02.069Z,29.3
2018-03-14T06:23:04.057Z,29.6
2018-03-14T06:24:05.785Z,29.6
2018-03-14T06:25:07.433Z,31.4
2018-03-14T06:26:09.132Z,33.5
2018-03-14T06:27:10.744Z,33.4
2018-03-14T06:28:12.398Z,31.1
2018-03-14T06:29:14.050Z,32.4
2018-03-14T06:30:15.714Z,35.0
2018-03-14T06:31:17.367Z,32.7
2018-03-14T06:32:19.013Z,30.3
2018-03-14T06:33:20.679Z,30.1
2018-03-14T06:34:22.333Z,31.4
2018-03-14T06:35:23.980Z,34.5
2018-03-14T06:36:25.635Z,33.9
2018-03-14T06:37:27.297Z,31.5
2018-03-14T06:38:28.958Z,32.6
2018-03-14T06:39:30.615Z,31.4
2018-03-14T06:40:32.280Z,31.2
2018-03-14T06:41:33.926Z,29.2
2018-03-14T06:42:35.591Z,29.7
2018-03-14T06:43:37.251Z,29.3
2018-03-14T06:44:38.903Z,29.1
2018-03-14T06:45:40.558Z,30.3
2018-03-14T06:46:42.209Z,30.1
2018-03-14T06:47:43.862Z,29.2
2018-03-14T06:48:45.525Z,28.2
2018-03-14T06:49:47.200Z,25.3
2018-03-14T06:50:48.858Z,27.8
2018-03-14T06:51:50.527Z,27.5
2018-03-14T06:52:52.182Z,28.3
2018-03-14T06:53:53.828Z,28.4
2018-03-14T06:54:55.492Z,26.4
2018-03-14T07:01:05.812Z,22.3
2018-03-14T07:02:07.478Z,24.0
2018-03-14T07:03:09.108Z,23.7
2018-03-14T07:04:10.770Z,25.7
2018-03-14T07:05:12.414Z,26.0
2018-03-14T07:06:14.071Z,25.7
2018-03-14T07:07:15.726Z,27.2
2018-03-14T07:08:17.384Z,26.2
2018-03-14T07:09:19.033Z,25.5
2018-03-14T07:10:20.696Z,24.0
2018-03-14T07:11:22.355Z,25.4
2018-03-14T07:12:24.021Z,24.9
2018-03-14T07:13:25.672Z,26.0
2018-03-14T07:14:27.333Z,25.1
2018-03-14T07:15:28.993Z,25.3
2018-03-14T07:16:30.642Z,25.3
2018-03-14T07:17:32.301Z,26.1
2018-03-14T07:18:33.948Z,26.3
2018-03-14T07:19:35.606Z,25.8
2018-03-14T07:20:37.254Z,26.3
2018-03-14T07:21:38.916Z,27.2
2018-03-14T07:22:40.583Z,26.0
2018-03-14T07:23:42.225Z,25.5
2018-03-14T07:24:43.872Z,26.3
2018-03-14T07:25:45.530Z,25.2
2018-03-14T07:26:47.192Z,25.8
2018-03-14T07:27:48.845Z,25.6
2018-03-14T07:28:50.506Z,24.1
2018-03-14T07:29:52.165Z,24.3
2018-03-14T07:30:53.813Z,25.3
2018-03-14T07:31:55.474Z,24.0
2018-03-14T07:32:57.141Z,24.4
2018-03-14T07:33:58.796Z,25.8
2018-03-14T07:35:00.451Z,25.1
2018-03-14T07:36:02.102Z,25.7
2018-03-14T07:37:04.531Z,23.6
2018-03-14T07:38:06.183Z,23.9
2018-03-14T07:39:07.838Z,24.7
2018-03-14T07:40:09.491Z,24.8
2018-03-14T07:41:11.147Z,25.3
2018-03-14T07:42:12.799Z,24.0
2018-03-14T07:43:14.454Z,23.6
2018-03-14T07:44:16.114Z,24.7
2018-03-14T07:45:17.758Z,24.1
2018-03-14T07:46:19.418Z,25.5
2018-03-14T07:47:21.082Z,24.1
2018-03-14T07:48:22.742Z,24.5
2018-03-14T07:49:24.396Z,25.7
2018-03-14T07:50:26.064Z,24.4
2018-03-14T07:51:27.732Z,24.4
2018-03-14T07:52:29.397Z,24.1
2018-03-14T07:53:31.062Z,24.9
2018-03-14T07:54:32.749Z,25.3
2018-03-14T07:55:34.403Z,24.4
2018-03-14T07:56:36.067Z,25.0
2018-03-14T07:57:37.732Z,24.7
2018-03-14T07:58:39.390Z,24.4
2018-03-14T07:59:41.043Z,24.1
2018-03-14T08:00:43.252Z,25.7
2018-03-14T08:01:44.917Z,24.6
2018-03-14T08:02:46.567Z,24.6
2018-03-14T08:03:48.227Z,25.2
2018-03-14T08:04:49.887Z,25.7
2018-03-14T08:05:51.550Z,26.3
2018-03-14T08:06:53.208Z,23.8
2018-03-14T08:07:54.855Z,24.4
2018-03-14T08:08:56.524Z,25.3
2018-03-14T08:09:59.144Z,25.7
2018-03-14T08:11:00.791Z,25.0
2018-03-14T08:12:02.456Z,26.1
2018-03-14T08:13:04.120Z,27.2
2018-03-14T08:14:05.795Z,25.0
2018-03-14T08:15:07.445Z,24.4
2018-03-14T08:16:09.092Z,26.1
2018-03-14T08:17:10.751Z,23.8
2018-03-14T08:18:12.410Z,24.5
2018-03-14T08:19:14.076Z,25.2
2018-03-14T08:20:17.841Z,25.1
2018-03-14T08:21:19.476Z,24.4
2018-03-14T08:22:21.076Z,24.2
2018-03-14T08:23:22.745Z,25.2
2018-03-14T08:24:25.734Z,25.5
2018-03-14T08:25:27.365Z,22.6
2018-03-14T08:26:29.024Z,22.7
2018-03-14T08:27:30.697Z,22.1
2018-03-14T08:28:32.364Z,22.6
2018-03-14T08:29:34.023Z,22.9
2018-03-14T08:30:35.694Z,23.5
2018-03-14T08:31:37.351Z,24.4
2018-03-14T08:32:39.011Z,22.7
2018-03-14T08:33:40.698Z,20.3
2018-03-14T08:34:42.354Z,21.1
2018-03-14T08:35:44.015Z,20.2
2018-03-14T08:36:45.676Z,21.0
2018-03-14T08:37:47.342Z,20.9
2018-03-14T08:38:49.011Z,20.6
2018-03-14T08:39:50.676Z,20.0
2018-03-14T08:40:52.336Z,20.6
2018-03-14T08:41:54.001Z,23.0
2018-03-14T08:42:55.652Z,21.8
2018-03-14T08:43:57.313Z,21.3
2018-03-14T08:44:58.984Z,20.5
2018-03-14T08:46:00.643Z,18.0
2018-03-14T08:47:02.305Z,18.2
2018-03-14T08:48:03.973Z,19.3
2018-03-14T08:49:05.626Z,21.4
2018-03-14T08:50:07.280Z,20.2
2018-03-14T08:51:08.938Z,19.0
2018-03-14T08:52:10.603Z,19.9
2018-03-14T08:53:12.259Z,18.6
2018-03-14T08:54:13.923Z,20.6
2018-03-14T08:55:15.597Z,20.9
2018-03-14T08:56:18.614Z,20.0
2018-03-14T08:57:20.282Z,19.6
2018-03-14T08:58:21.935Z,20.9
2018-03-14T08:59:23.598Z,21.3
2018-03-14T09:00:25.258Z,20.7
2018-03-14T09:01:26.954Z,19.5
2018-03-14T09:02:28.634Z,18.8
2018-03-14T09:03:30.295Z,18.0
2018-03-14T09:04:31.958Z,19.3
2018-03-14T09:05:33.626Z,17.4
2018-03-14T09:06:35.291Z,17.4
2018-03-14T09:07:36.945Z,18.2
2018-03-14T09:08:38.615Z,18.8
2018-03-14T09:09:40.272Z,18.7
2018-03-14T09:10:41.945Z,18.3
2018-03-14T09:11:43.607Z,18.7
2018-03-14T09:12:45.293Z,19.6
2018-03-14T09:13:46.950Z,19.1
2018-03-14T09:14:48.615Z,19.2
2018-03-14T09:15:50.276Z,18.9
2018-03-14T09:16:51.955Z,19.2
2018-03-14T09:17:53.628Z,17.7
2018-03-14T09:18:55.290Z,17.5
2018-03-14T09:19:56.960Z,17.3
2018-03-14T09:20:58.622Z,17.6
2018-03-14T09:22:00.283Z,19.3
2018-03-14T09:23:01.945Z,18.8
2018-03-14T09:24:03.606Z,18.1
2018-03-14T09:25:05.274Z,18.6
2018-03-14T09:26:06.919Z,17.8
2018-03-14T09:27:08.590Z,17.9
2018-03-14T09:28:10.279Z,18.3
2018-03-14T09:29:11.962Z,18.4
2018-03-14T09:30:13.634Z,17.4
2018-03-14T09:31:15.289Z,18.6
2018-03-14T09:32:16.958Z,19.3
2018-03-14T09:33:18.645Z,19.3
2018-03-14T09:34:20.282Z,18.6
2018-03-14T09:35:21.949Z,18.3
2018-03-14T09:36:23.610Z,20.2
2018-03-14T09:37:25.279Z,20.0
2018-03-14T09:38:26.958Z,20.3
2018-03-14T09:39:28.618Z,19.4
2018-03-14T09:40:30.285Z,18.0
2018-03-14T09:41:31.939Z,18.1
2018-03-14T09:42:33.603Z,19.1
2018-03-14T09:43:35.269Z,18.4
2018-03-14T09:44:36.934Z,18.1
2018-03-14T09:45:38.594Z,19.5
2018-03-14T09:46:40.274Z,19.1
2018-03-14T09:47:41.967Z,20.4
2018-03-14T09:48:43.638Z,18.9
2018-03-14T09:49:45.302Z,20.2
2018-03-14T09:50:46.959Z,20.3
2018-03-14T09:51:48.623Z,19.5
2018-03-14T09:52:50.302Z,21.1
2018-03-14T09:53:51.961Z,21.7
2018-03-14T09:54:53.625Z,22.1
2018-03-14T09:55:55.272Z,21.6
2018-03-14T09:56:56.940Z,21.8
2018-03-14T09:57:58.595Z,21.9
2018-03-14T09:59:00.260Z,23.0
2018-03-14T10:00:01.931Z,23.4
2018-03-14T10:01:03.584Z,22.1
2018-03-14T10:02:05.253Z,19.2
2018-03-14T10:03:06.915Z,23.0
2018-03-14T10:04:08.579Z,21.5
2018-03-14T10:05:10.253Z,20.7
2018-03-14T10:06:11.907Z,20.1
2018-03-14T10:07:13.569Z,18.9
2018-03-14T10:08:15.240Z,19.7
2018-03-14T10:09:16.912Z,20.5
2018-03-14T10:10:18.577Z,21.0
2018-03-14T10:11:20.244Z,20.4
2018-03-14T10:12:21.915Z,20.1
2018-03-14T10:13:23.583Z,26.3
2018-03-14T10:14:25.254Z,22.8
2018-03-14T10:15:26.916Z,20.9
2018-03-14T10:16:28.576Z,20.2
2018-03-14T10:17:30.234Z,20.0
2018-03-14T10:18:31.895Z,20.0
2018-03-14T10:19:33.566Z,19.6
2018-03-14T10:20:35.239Z,18.7
2018-03-14T10:21:36.904Z,17.4
2018-03-14T10:22:38.591Z,17.7
2018-03-14T10:23:40.260Z,21.1
2018-03-14T10:24:41.926Z,19.3
2018-03-14T10:25:43.634Z,17.6
2018-03-14T10:26:45.223Z,18.8
2018-03-14T10:27:46.888Z,17.8
2018-03-14T10:28:48.568Z,22.8
2018-03-14T10:29:50.242Z,19.6
2018-03-14T10:30:51.916Z,20.1
2018-03-14T10:31:53.595Z,19.8
2018-03-14T10:32:55.301Z,19.2
2018-03-14T10:33:56.972Z,17.1
2018-03-14T10:34:58.639Z,18.0
2018-03-14T10:36:00.306Z,18.9
2018-03-14T10:37:01.974Z,20.4
2018-03-14T10:38:03.649Z,22.9
2018-03-14T10:39:05.313Z,17.2
2018-03-14T10:40:06.988Z,18.3
2018-03-14T10:41:08.695Z,17.8
2018-03-14T10:42:10.318Z,18.6
2018-03-14T10:43:12.084Z,19.5
2018-03-14T10:44:13.781Z,19.9
2018-03-14T10:45:15.453Z,21.2
2018-03-14T10:46:17.108Z,22.1
2018-03-14T10:47:18.766Z,20.7
2018-03-14T10:48:20.444Z,20.3
2018-03-14T10:49:22.114Z,22.2
2018-03-14T10:50:23.792Z,20.8
2018-03-14T10:51:25.468Z,20.9
2018-03-14T10:52:27.134Z,23.8
2018-03-14T10:53:28.809Z,19.8
2018-03-14T10:54:32.037Z,17.3
2018-03-14T10:55:33.708Z,19.6
2018-03-14T11:01:55.500Z,16.9
2018-03-14T11:02:57.160Z,15.2
2018-03-14T11:03:58.816Z,15.4
2018-03-14T11:05:00.484Z,15.2
2018-03-14T11:06:02.156Z,15.2
2018-03-14T11:07:03.819Z,15.5
2018-03-14T11:08:05.501Z,14.7
2018-03-14T11:09:07.179Z,15.7
2018-03-14T11:10:08.839Z,15.6
2018-03-14T11:11:10.496Z,16.7
2018-03-14T11:12:12.169Z,17.1
2018-03-14T11:13:13.840Z,16.1
2018-03-14T11:14:15.522Z,15.7
2018-03-14T11:15:17.194Z,15.9
2018-03-14T11:16:18.859Z,15.4
2018-03-14T11:17:20.551Z,15.8
2018-03-14T11:18:22.217Z,14.9
2018-03-14T11:19:23.895Z,16.3
2018-03-14T11:20:25.574Z,16.4
2018-03-14T11:21:27.279Z,18.9
2018-03-14T11:22:28.911Z,20.1
2018-03-14T11:23:30.600Z,14.5
2018-03-14T11:24:32.265Z,14.0
2018-03-14T11:25:33.973Z,14.0
2018-03-14T11:26:35.606Z,13.1
2018-03-14T11:27:37.274Z,12.7
2018-03-14T11:28:38.937Z,13.7
2018-03-14T11:29:40.611Z,13.7
2018-03-14T11:30:42.290Z,14.3
2018-03-14T11:31:43.959Z,13.6
2018-03-14T11:32:45.626Z,14.4
2018-03-14T11:33:47.354Z,14.3
2018-03-14T11:34:49.020Z,14.2
2018-03-14T11:35:50.674Z,14.7
2018-03-14T11:36:52.454Z,13.4
2018-03-14T11:37:54.142Z,14.3
2018-03-14T11:38:55.794Z,15.1
2018-03-14T11:39:57.457Z,13.6
2018-03-14T11:40:59.116Z,13.5
2018-03-14T11:42:00.798Z,11.7
2018-03-14T11:43:02.470Z,12.6
2018-03-14T11:44:04.157Z,12.3
2018-03-14T11:45:05.828Z,12.7
2018-03-14T11:46:07.506Z,13.1
2018-03-14T11:47:09.172Z,12.3
2018-03-14T11:48:10.829Z,10.9
2018-03-14T11:49:12.492Z,14.0
2018-03-14T11:50:14.159Z,14.1
2018-03-14T11:51:15.826Z,12.4
2018-03-14T11:52:17.488Z,12.6
2018-03-14T11:53:19.156Z,11.8
2018-03-14T11:54:20.826Z,12.5
2018-03-14T11:55:22.500Z,12.2
2018-03-14T11:56:24.161Z,12.8
2018-03-14T11:57:25.827Z,11.9
2018-03-14T11:58:27.497Z,12.5
2018-03-14T11:59:29.157Z,11.9
2018-03-14T12:00:30.818Z,10.9
2018-03-14T12:01:32.488Z,12.5
2018-03-14T12:02:34.161Z,14.8
2018-03-14T12:03:35.828Z,12.9
2018-03-14T12:04:37.491Z,12.3
2018-03-14T12:05:39.160Z,11.1
2018-03-14T12:06:40.825Z,11.7
2018-03-14T12:07:42.486Z,10.8
2018-03-14T12:08:44.162Z,9.9
2018-03-14T12:09:45.828Z,12.7
2018-03-14T12:10:47.486Z,12.0
2018-03-14T12:11:49.165Z,10.1
2018-03-14T12:12:50.842Z,10.6
2018-03-14T12:13:52.515Z,10.0
2018-03-14T12:14:54.186Z,9.1
2018-03-14T12:15:55.843Z,8.9
2018-03-14T12:16:57.513Z,9.2
2018-03-14T12:17:59.189Z,9.4
2018-03-14T12:19:00.862Z,9.3
2018-03-14T12:20:02.533Z,10.0
2018-03-14T12:21:04.225Z,9.3
2018-03-14T12:22:05.905Z,9.8
2018-03-14T12:23:07.604Z,10.9
2018-03-14T12:24:09.271Z,11.3
2018-03-14T12:25:10.939Z,11.0
2018-03-14T12:26:12.607Z,10.2
2018-03-14T12:27:14.272Z,12.7
2018-03-14T12:28:15.948Z,10.3
2018-03-14T12:29:17.601Z,9.7
2018-03-14T12:30:19.271Z,9.6
2018-03-14T12:31:20.946Z,9.8
2018-03-14T12:32:22.622Z,10.9
2018-03-14T12:33:24.289Z,8.8
2018-03-14T12:34:25.953Z,9.8
2018-03-14T12:35:27.627Z,9.5
2018-03-14T12:36:29.286Z,9.2
2018-03-14T12:37:30.956Z,10.5
2018-03-14T12:38:32.653Z,9.6
2018-03-14T12:39:34.295Z,9.8
2018-03-14T12:40:35.971Z,10.0
2018-03-14T12:41:37.637Z,10.8
2018-03-14T12:42:39.305Z,10.3
2018-03-14T12:43:40.973Z,10.5
2018-03-14T12:44:42.638Z,10.3
2018-03-14T12:45:44.305Z,10.6
2018-03-14T12:46:45.964Z,10.3
2018-03-14T12:47:47.646Z,10.3
2018-03-14T12:48:49.322Z,9.5
2018-03-14T12:49:51.008Z,9.3
2018-03-14T12:50:52.695Z,10.7
2018-03-14T12:51:54.364Z,9.3
2018-03-14T12:52:56.029Z,9.0
2018-03-14T12:53:57.708Z,10.2
2018-03-14T12:54:59.372Z,11.7
2018-03-14T12:56:01.052Z,12.1
2018-03-14T12:57:02.720Z,11.0
2018-03-14T12:58:04.391Z,9.7
2018-03-14T12:59:06.058Z,10.4
2018-03-14T13:00:07.721Z,11.2
2018-03-14T13:01:09.391Z,10.9
2018-03-14T13:02:11.064Z,10.9
2018-03-14T13:03:12.735Z,10.0
2018-03-14T13:04:14.389Z,11.1
2018-03-14T13:05:16.131Z,12.5
2018-03-14T13:06:17.805Z,10.3
2018-03-14T13:07:19.470Z,10.3
2018-03-14T13:08:21.183Z,9.6
2018-03-14T13:09:22.849Z,9.5
2018-03-14T13:10:24.513Z,9.9
2018-03-14T13:11:26.277Z,8.8
2018-03-14T13:12:27.898Z,9.1
2018-03-14T13:13:29.560Z,10.7
2018-03-14T13:14:31.314Z,10.4
2018-03-14T13:15:32.953Z,10.9
2018-03-14T13:16:34.624Z,11.2
2018-03-14T13:17:36.299Z,10.9
2018-03-14T13:18:37.967Z,11.0
2018-03-14T13:19:39.650Z,9.5
2018-03-14T13:20:41.312Z,9.7
2018-03-14T13:21:42.965Z,9.1
2018-03-14T13:22:44.647Z,10.0
2018-03-14T13:23:46.309Z,9.3
2018-03-14T13:24:48.002Z,8.8
2018-03-14T13:25:49.667Z,8.9
2018-03-14T13:26:51.324Z,8.8
2018-03-14T13:27:53.016Z,9.9
2018-03-14T13:28:54.690Z,10.4
2018-03-14T13:29:56.333Z,9.9
2018-03-14T13:30:58.014Z,8.3
2018-03-14T13:31:59.680Z,9.3
2018-03-14T13:33:01.345Z,9.4
2018-03-14T13:34:03.003Z,7.3
2018-03-14T13:35:04.705Z,7.5
2018-03-14T13:36:06.403Z,7.6
2018-03-14T13:37:08.070Z,8.1
2018-03-14T13:38:09.844Z,9.5
2018-03-14T13:39:11.436Z,9.7
2018-03-14T13:40:14.103Z,11.5
2018-03-14T13:41:15.781Z,11.2
2018-03-14T13:42:17.444Z,7.7
2018-03-14T13:43:19.109Z,8.4
2018-03-14T13:44:20.788Z,8.9
2018-03-14T13:45:22.448Z,9.1
2018-03-14T13:46:24.233Z,9.2
2018-03-14T13:47:25.891Z,9.5
2018-03-14T13:48:27.558Z,9.4
2018-03-14T13:49:29.230Z,10.2
2018-03-14T13:50:30.906Z,8.1
2018-03-14T13:51:32.571Z,8.7
2018-03-14T13:52:34.259Z,8.3
2018-03-14T13:53:35.909Z,7.6
2018-03-14T13:54:37.614Z,7.3
2018-03-14T13:55:39.282Z,8.4
2018-03-14T13:56:40.943Z,7.6
2018-03-14T13:57:42.630Z,7.7
2018-03-14T13:58:44.311Z,7.8
2018-03-14T13:59:45.988Z,7.8
2018-03-14T14:00:47.644Z,8.3